AirNav   BOSE ProFlight Aviation Headset
 
 1629 users online  

17A Trigger Gap Airport
Berryville, Arkansas, USA

GOING TO BERRYVILLE?


FAA INFORMATION EFFECTIVE 21 JUNE 2018

Location

FAA Identifier: 17A
Lat/Long: 36-19-40.0000N / 093-37-19.0000W
36-19.666667N / 093-37.316667W
36.3277778 / -93.6219444
(estimated)
Elevation: 1630 ft. / 497 m (estimated)
From city: 5 miles SW of BERRYVILLE, AR
Time zone: UTC -5 (UTC -6 during Standard Time)
Zip code: 72616

Airport Operations

Airport use: Open to the public
Activation date: 09/2017
Control tower: no
ARTCC: MEMPHIS CENTER
FSS: JONESBORO FLIGHT SERVICE STATION
NOTAMs facility: JBR (NOTAM-D service not available)
Attendance: UNATTND
Segmented circle: no

Airport Communications

CTAF: 122.9

Nearby radio navigation aids

VOR radial/distance  VOR name  Freq  Var
HROr268/19.8HARRISON VOR/DME112.5004E
RZCr075/24.6RAZORBACK VORTAC116.4004E
DAKr051/32.7DRAKE VOR/DME115.2507E

Airport Services

Runway Information

Runway 10/28

Dimensions: 3000 x 75 ft. / 914 x 23 m
Surface: turf
RUNWAY 10  RUNWAY 28
Traffic pattern: rightright

Airport Ownership and Management from official FAA records

Ownership: Publicly-owned
Owner: RECREATIONAL AVIATION FOUNDATION
1711 W COLLEGE STREET
BOZEMAN, MT 59715
Phone 406-582-1723
Manager: CHAD COX
3404 CARDINAL LANE
BENTONVILLE, AR 72712
Phone 501-732-0658

Instrument Procedures

There are no published instrument procedures at 17A.

Some nearby airports with instrument procedures:

4M1 - Carroll County Airport (3 nm N)
H34 - Huntsville Municipal Airport (16 nm SW)
KHRO - Boone County Airport (23 nm E)
KROG - Rogers Executive Airport - Carter Field (24 nm W)
KBBG - Branson Airport (24 nm NE)
 
Loc | Ops | Rwys | IFR | FBO | Links
Com | Nav | Svcs | Stats | Notes

AirNav Hotels Sweepstakes
 
Aerial photo
WARNING: Photo may not be current or correct
Aerial photo of 17A (Trigger Gap Airport)
Photo by JD Lawson
Photo taken 21-Jan-2017
looking southeast.

Do you have a better or more recent aerial photo of Trigger Gap Airport that you would like to share? If so, please send us your photo.

 
Airport distance calculator
Flying to Trigger Gap Airport? Find the distance to fly.

From to 17A

Sunrise and sunset
Times for 25-Jun-2018
 Local
(UTC-5)
 Zulu
(UTC)
Morning civil twilight05:2910:29
Sunrise05:5910:59
Sunset20:3501:35
Evening civil twilight21:0502:05

Current date and time
Zulu (UTC)  25-Jun-2018 19:37:24
Local (UTC-5)  25-Jun-2018 14:37:24
 
METAR
KROG 
22nm W 
251858Z 26014G20KT 10SM BKN050 29/19 A3000 RMK AO2 SLP143 T02940194
KHRO 
23nm E 
251853Z AUTO 20009KT 10SM CLR 30/21 A2997 RMK AO2 SLP134 T03000211
KBBG 
24nm NE 
251845Z 23007KT 10SM FEW050 BKN250 33/18 A2997
KFWB 
25nm NE 
251915Z AUTO 23010G19KT 10SM CLR 32/19 A2998 RMK AO2
KASG 
26nm W 
251848Z 26014G24KT 10SM SCT044 30/19 A3000
KVBT 
29nm W 
251856Z AUTO 28007G17KT 10SM SCT045 BKN055 28/20 A3001 RMK AO2 SLP152 T02830200
KFYV 
32nm SW 
251853Z 25010KT 10SM CLR 28/22 A2999 RMK AO2 SLP142 T02830217
KXNA 
33nm W 
251853Z 26018G26KT 10SM FEW040 SCT050 29/19 A2999 RMK AO2 PK WND 27026/1844 RAB47E53 SLP142 P0000 T02940189
KHFJ 
39nm NW 
251910Z AUTO 24012G19KT 10SM SCT037 BKN044 BKN050 28/18 A2999 RMK AO2
KSLG 
42nm W 
251856Z AUTO 28015G19KT 10SM SCT037 OVC048 29/19 A3000 RMK AO2 SLP150 T02890189
TAF
KROG 
22nm W 
251720Z 2518/2618 18014KT P6SM SCT050 BKN250 FM252100 19012KT P6SM VCTS BKN050CB FM260100 17010KT P6SM BKN050 PROB30 2603/2609 4SM -TSRA BKN030CB FM261500 21013G20KT P6SM BKN100
KHRO 
23nm E 
251730Z 2518/2618 17017G22KT P6SM SCT080 FM260000 17004KT P6SM SCT100 SCT250 FM261500 19009KT P6SM SKC
KBBG 
24nm NE 
251736Z 2518/2618 19015G22KT P6SM VCTS SCT050CB BKN250 FM252300 20008KT P6SM SCT040 BKN110 PROB30 2603/2607 4SM -TSRA OVC025CB FM260800 19008KT P6SM VCSH SCT012 BKN060 PROB30 2610/2616 4SM -TSRA OVC025CB
NOTAMs
Click for the latest NOTAMs
NOTAMs are issued by the DoD/FAA and will open in a separate window not controlled by AirNav.

 

 
 

Would you like to see your business listed on this page?

 If your business provides an interesting product or service to pilots, flight crews, aircraft, or users of the Trigger Gap Airport, you should consider listing it here.  To start the listing process, click on the button below
 
Add a business
 

Other Pages about Trigger Gap Airport

Update a link
 
Copyright © AirNav, LLC. All rights reserved. Privacy Policy  Contact